Time;durP1;ratioP1;P1;durP2;ratioP2;P2;SDS_P1;SDS_P2;PMS_P1;PMS_P2;Temp;Humidity;BMP_temperature;BMP_pressure;BME280_temperature;BME280_humidity;BME280_pressure;Samples;Min_cycle;Max_cycle;Signal;HPM_P1;HPM_P2
2023/08/17 00:01:48;;;;;;;17.00;14.10;;;21.00;99.90;;;;;;4918830;29;20040;-74
2023/08/17 00:04:14;;;;;;;20.23;14.95;;;21.00;99.90;;;;;;4901099;29;20488;-74
2023/08/17 00:06:40;;;;;;;18.38;13.40;;;20.90;99.90;;;;;;4918147;29;20106;-74
2023/08/17 00:09:06;;;;;;;21.60;15.65;;;20.90;99.90;;;;;;4918249;29;20539;-75
2023/08/17 00:11:33;;;;;;;21.65;14.43;;;20.90;99.90;;;;;;4918311;29;20476;-75
2023/08/17 00:13:59;;;;;;;20.88;15.50;;;20.90;99.90;;;;;;4918299;29;20111;-76
2023/08/17 00:16:25;;;;;;;21.27;14.85;;;20.80;99.90;;;;;;4918229;29;20028;-74
2023/08/17 00:18:51;;;;;;;18.63;14.32;;;20.80;99.90;;;;;;4918340;29;20445;-74
2023/08/17 00:21:17;;;;;;;24.20;14.65;;;20.80;99.90;;;;;;4917932;29;20107;-76
2023/08/17 00:23:43;;;;;;;23.20;14.18;;;20.80;99.90;;;;;;4918265;29;20407;-75
2023/08/17 00:26:09;;;;;;;21.73;14.70;;;20.80;99.90;;;;;;4917649;29;20096;-75
2023/08/17 00:28:35;;;;;;;23.50;14.65;;;20.80;99.90;;;;;;4918299;29;20059;-75
2023/08/17 00:31:02;;;;;;;21.73;14.82;;;20.70;99.90;;;;;;4917699;29;20024;-76
2023/08/17 00:33:28;;;;;;;23.67;14.30;;;20.70;99.90;;;;;;4918057;29;20032;-73
2023/08/17 00:35:54;;;;;;;22.85;14.65;;;20.60;99.90;;;;;;4917417;29;20562;-74
2023/08/17 00:38:20;;;;;;;24.70;15.20;;;20.60;99.90;;;;;;4917412;29;20163;-73
2023/08/17 00:40:46;;;;;;;21.15;14.82;;;20.50;99.90;;;;;;4917949;29;20047;-76
2023/08/17 00:43:12;;;;;;;21.58;16.52;;;20.40;99.90;;;;;;4916038;29;20526;-75
2023/08/17 00:45:37;;;;;;;22.73;15.45;;;20.40;99.90;;;;;;4916700;29;20028;-75
2023/08/17 00:48:07;;;;;;;21.23;15.68;;;20.40;99.90;;;;;;4917667;29;20472;-76
2023/08/17 00:50:34;;;;;;;23.02;15.95;;;20.40;99.90;;;;;;4900800;29;20071;-74
2023/08/17 00:53:01;;;;;;;23.65;15.52;;;20.40;99.90;;;;;;4917316;29;20034;-74
2023/08/17 00:55:28;;;;;;;22.67;16.00;;;20.40;99.90;;;;;;4900684;29;20051;-76
2023/08/17 00:57:57;;;;;;;21.65;16.00;;;20.40;99.90;;;;;;4917714;29;20024;-75
2023/08/17 01:00:26;;;;;;;22.35;17.83;;;20.40;99.90;;;;;;4917483;29;20036;-76
2023/08/17 01:02:53;;;;;;;25.33;18.83;;;20.40;99.90;;;;;;4900642;29;20032;-75
2023/08/17 01:05:20;;;;;;;27.00;22.02;;;20.50;99.90;;;;;;4917334;29;20400;-75
2023/08/17 01:07:45;;;;;;;28.02;23.08;;;20.40;99.90;;;;;;4916994;29;20103;-76
2023/08/17 01:10:12;;;;;;;27.67;23.33;;;20.30;99.90;;;;;;4915764;29;20044;-73
2023/08/17 01:12:37;;;;;;;30.65;23.63;;;20.30;99.90;;;;;;4917304;29;20031;-74
2023/08/17 01:15:12;;;;;;;27.33;21.65;;;20.30;99.90;;;;;;4900168;29;20032;-76
2023/08/17 01:17:43;;;;;;;27.85;22.98;;;20.20;99.90;;;;;;4917028;29;20036;-74
2023/08/17 01:20:13;;;;;;;30.05;23.15;;;20.20;99.90;;;;;;4917259;29;20024;-74
2023/08/17 01:22:42;;;;;;;31.27;23.75;;;20.20;99.90;;;;;;4899722;29;20115;-75
2023/08/17 01:25:09;;;;;;;29.20;23.27;;;20.20;99.90;;;;;;4916963;29;20122;-72
2023/08/17 01:27:43;;;;;;;34.33;24.88;;;20.20;99.90;;;;;;4916755;29;20028;-73
2023/08/17 01:30:12;;;;;;;28.27;23.45;;;20.20;99.90;;;;;;4927246;29;20483;-72
2023/08/17 01:32:55;;;;;;;30.70;24.63;;;20.20;99.90;;;;;;4900392;29;20400;-76
2023/08/17 01:35:50;;;;;;;30.35;23.15;;;20.20;99.90;;;;;;4916678;29;20040;-75
2023/08/17 01:38:20;;;;;;;29.63;22.40;;;20.20;99.90;;;;;;4916392;29;20072;-75
2023/08/17 01:40:50;;;;;;;30.33;22.33;;;20.20;99.90;;;;;;4916875;29;20039;-75
2023/08/17 01:43:16;;;;;;;29.50;22.50;;;20.10;99.90;;;;;;4916609;29;20136;-73
2023/08/17 01:45:44;;;;;;;26.77;21.88;;;20.10;99.90;;;;;;4915611;29;20032;-75
2023/08/17 01:48:10;;;;;;;28.52;23.42;;;20.10;99.90;;;;;;4915631;29;20072;-77
2023/08/17 01:50:36;;;;;;;28.60;21.92;;;20.10;99.90;;;;;;4899524;29;20453;-76
2023/08/17 01:53:02;;;;;;;28.40;22.65;;;20.00;99.90;;;;;;4915011;29;20066;-75
2023/08/17 01:55:28;;;;;;;29.98;25.13;;;20.00;99.90;;;;;;4916390;29;20040;-76
2023/08/17 01:57:54;;;;;;;30.13;23.65;;;19.90;99.90;;;;;;4899626;29;20395;-75
2023/08/17 02:00:19;;;;;;;29.35;23.45;;;19.90;99.90;;;;;;4899494;29;20039;-75
2023/08/17 02:02:45;;;;;;;29.70;24.27;;;19.90;99.90;;;;;;4916693;29;20032;-77
2023/08/17 02:05:11;;;;;;;23.92;18.75;;;20.00;99.90;;;;;;4915111;29;20476;-76
2023/08/17 02:07:37;;;;;;;26.70;21.25;;;19.90;99.90;;;;;;4916415;29;20024;-76
2023/08/17 02:10:03;;;;;;;28.38;21.58;;;19.90;99.90;;;;;;4899318;29;20044;-75
2023/08/17 02:12:29;;;;;;;32.53;24.60;;;19.80;99.90;;;;;;4916443;29;20111;-74
2023/08/17 02:14:54;;;;;;;29.50;25.25;;;19.80;99.90;;;;;;4898716;29;20135;-77
2023/08/17 02:17:22;;;;;;;31.25;24.77;;;19.80;99.90;;;;;;4899151;29;20064;-74
2023/08/17 02:19:48;;;;;;;27.50;22.90;;;19.80;99.90;;;;;;4916217;29;20032;-74
2023/08/17 02:22:14;;;;;;;31.95;24.00;;;19.90;99.90;;;;;;4916031;29;20028;-75
2023/08/17 02:24:40;;;;;;;31.73;24.05;;;19.80;99.90;;;;;;4916255;29;20028;-76
2023/08/17 02:27:08;;;;;;;27.38;21.75;;;19.80;99.90;;;;;;4916018;29;20024;-75
2023/08/17 02:29:35;;;;;;;28.85;22.38;;;;;;;;;;4904729;29;20055;-74
2023/08/17 02:32:01;;;;;;;27.80;23.92;;;19.70;99.90;;;;;;4920796;29;20039;-76
2023/08/17 02:34:27;;;;;;;31.92;23.80;;;19.60;99.90;;;;;;4915968;29;20042;-73
2023/08/17 02:36:55;;;;;;;31.02;25.10;;;;;;;;;;4915804;29;20023;-75
2023/08/17 02:39:23;;;;;;;30.80;23.98;;;;;;;;;;4914588;29;20139;-76
2023/08/17 02:41:49;;;;;;;32.22;25.98;;;20.00;99.90;;;;;;4915708;29;20040;-74
2023/08/17 02:44:15;;;;;;;33.20;22.40;;;19.40;99.90;;;;;;4898637;29;20047;-74
2023/08/17 02:46:41;;;;;;;30.52;24.35;;;19.50;99.90;;;;;;4915842;29;20027;-74
2023/08/17 02:49:07;;;;;;;30.40;25.00;;;19.50;99.90;;;;;;4898716;29;20710;-75
2023/08/17 02:51:33;;;;;;;30.75;24.02;;;19.50;99.90;;;;;;4916000;29;20099;-75
2023/08/17 02:53:59;;;;;;;28.45;22.70;;;19.50;99.90;;;;;;4914149;29;20128;-72
2023/08/17 02:56:25;;;;;;;31.33;23.77;;;19.50;99.90;;;;;;4915954;29;20065;-72
2023/08/17 02:58:51;;;;;;;36.72;23.83;;;19.40;99.90;;;;;;4915737;29;20058;-75
2023/08/17 03:01:16;;;;;;;27.08;21.40;;;19.40;99.90;;;;;;4902395;29;20036;-75
2023/08/17 03:03:42;;;;;;;28.33;23.27;;;19.50;99.90;;;;;;4917978;29;21012;-72
2023/08/17 03:06:11;;;;;;;31.05;22.65;;;19.50;99.90;;;;;;4919765;29;20029;-72
2023/08/17 03:08:39;;;;;;;30.15;24.13;;;19.50;99.90;;;;;;4902016;29;20079;-72
2023/08/17 03:11:07;;;;;;;30.83;21.95;;;19.50;99.90;;;;;;4901862;29;20496;-76
2023/08/17 03:13:33;;;;;;;30.77;23.50;;;19.50;99.90;;;;;;4919352;29;20107;-73
2023/08/17 03:15:59;;;;;;;32.55;24.40;;;19.40;99.90;;;;;;4919162;29;20108;-74
2023/08/17 03:18:24;;;;;;;29.27;24.10;;;19.40;99.90;;;;;;4902143;29;20044;-75
2023/08/17 03:20:50;;;;;;;33.15;24.80;;;19.50;99.90;;;;;;4902129;29;20507;-75
2023/08/17 03:23:16;;;;;;;37.17;26.23;;;19.50;99.90;;;;;;4902307;29;20041;-75
2023/08/17 03:25:42;;;;;;;35.55;28.55;;;19.50;99.90;;;;;;4901966;29;20366;-75
2023/08/17 03:28:08;;;;;;;34.63;29.02;;;19.50;99.90;;;;;;4919466;29;20127;-76
2023/08/17 03:30:34;;;;;;;32.22;24.30;;;19.50;99.90;;;;;;4901551;29;20028;-76
2023/08/17 03:33:00;;;;;;;28.35;22.83;;;19.50;99.90;;;;;;4902058;29;20075;-76
2023/08/17 03:35:26;;;;;;;29.77;24.10;;;19.40;99.90;;;;;;4919065;29;20049;-76
2023/08/17 03:37:52;;;;;;;31.05;24.48;;;19.50;99.90;;;;;;4918680;29;20036;-76
2023/08/17 03:40:18;;;;;;;27.13;21.02;;;19.50;99.90;;;;;;4917430;29;20047;-74
2023/08/17 03:42:43;;;;;;;24.98;19.90;;;19.50;99.90;;;;;;4901874;29;20111;-75
2023/08/17 03:45:09;;;;;;;21.67;16.85;;;19.30;99.90;;;;;;4901364;29;20485;-73
2023/08/17 03:47:35;;;;;;;20.85;15.70;;;19.40;99.90;;;;;;4917707;29;20365;-74
2023/08/17 03:50:01;;;;;;;23.75;18.67;;;19.40;99.90;;;;;;4917209;29;20464;-72
2023/08/17 03:52:27;;;;;;;23.08;18.70;;;19.40;99.90;;;;;;4900783;29;20038;-72
2023/08/17 03:54:53;;;;;;;29.33;20.40;;;19.30;99.90;;;;;;4918393;29;20122;-76
2023/08/17 03:57:18;;;;;;;26.38;21.67;;;19.40;99.90;;;;;;4901379;29;20503;-76
2023/08/17 03:59:44;;;;;;;26.23;20.83;;;19.40;99.90;;;;;;4900554;29;20132;-73
2023/08/17 04:02:10;;;;;;;31.27;21.20;;;19.40;99.90;;;;;;4901920;29;20032;-73
2023/08/17 04:04:37;;;;;;;25.45;20.05;;;19.50;99.90;;;;;;4901326;29;20036;-73
2023/08/17 04:07:03;;;;;;;29.23;20.95;;;19.40;99.90;;;;;;4901839;29;20024;-74
2023/08/17 04:09:28;;;;;;;31.35;22.83;;;19.40;99.90;;;;;;4916963;29;20483;-73
2023/08/17 04:11:57;;;;;;;31.65;23.80;;;19.50;99.90;;;;;;4917240;29;20075;-76
2023/08/17 04:14:22;;;;;;;30.70;23.52;;;19.50;99.90;;;;;;4900755;29;20036;-74
2023/08/17 04:16:48;;;;;;;29.88;23.90;;;19.50;99.90;;;;;;4900860;29;20024;-74
2023/08/17 04:19:14;;;;;;;28.90;22.52;;;19.60;99.90;;;;;;4918278;29;20047;-77
2023/08/17 04:21:41;;;;;;;26.40;21.05;;;19.80;99.90;;;;;;4901411;29;20028;-76
2023/08/17 04:24:06;;;;;;;26.27;21.40;;;19.90;99.90;;;;;;4916828;29;20369;-73
2023/08/17 04:26:32;;;;;;;28.98;21.90;;;20.00;99.90;;;;;;4917755;29;20020;-73
2023/08/17 04:28:58;;;;;;;29.80;22.88;;;20.10;99.90;;;;;;4914576;29;20032;-73
2023/08/17 04:31:24;;;;;;;30.48;22.02;;;20.30;99.90;;;;;;4900595;29;20088;-76
2023/08/17 04:33:57;;;;;;;27.75;21.63;;;20.60;99.90;;;;;;4916863;29;20054;-76
2023/08/17 04:36:23;;;;;;;28.67;20.10;;;20.80;99.90;;;;;;4901026;29;20488;-76
2023/08/17 04:38:49;;;;;;;27.55;21.02;;;21.00;99.90;;;;;;4917527;29;20522;-74
2023/08/17 04:41:15;;;;;;;28.67;20.75;;;21.10;99.90;;;;;;4900326;29;20091;-76
2023/08/17 04:43:42;;;;;;;25.27;20.63;;;21.00;99.90;;;;;;4917950;29;20093;-73
2023/08/17 04:46:09;;;;;;;31.98;22.70;;;21.00;99.90;;;;;;4900797;29;20472;-73
2023/08/17 04:48:35;;;;;;;31.63;22.25;;;20.90;99.90;;;;;;4900196;29;20460;-72
2023/08/17 04:51:02;;;;;;;30.83;22.02;;;20.90;99.90;;;;;;4900926;29;20036;-74
2023/08/17 04:53:28;;;;;;;29.20;21.50;;;20.90;99.90;;;;;;4900216;29;20035;-74
2023/08/17 04:55:54;;;;;;;28.83;20.52;;;20.80;99.90;;;;;;4900728;29;20028;-76
2023/08/17 04:58:19;;;;;;;31.58;23.08;;;20.80;99.90;;;;;;4915813;29;20076;-77
2023/08/17 05:00:46;;;;;;;31.27;22.52;;;20.70;99.90;;;;;;4884967;29;20115;-74
2023/08/17 05:03:12;;;;;;;29.65;22.92;;;20.70;99.90;;;;;;4900210;29;20037;-73
2023/08/17 05:05:41;;;;;;;31.13;22.17;;;20.80;99.90;;;;;;4900306;29;20035;-73
2023/08/17 05:08:09;;;;;;;26.17;20.98;;;20.80;99.90;;;;;;4899686;29;20035;-73
2023/08/17 05:10:36;;;;;;;30.10;23.38;;;20.90;99.90;;;;;;4899976;29;20047;-73
2023/08/17 05:13:02;;;;;;;27.92;23.15;;;21.00;99.90;;;;;;4917289;29;20024;-76
2023/08/17 05:15:28;;;;;;;32.80;23.83;;;21.10;99.90;;;;;;4900066;29;20059;-76
2023/08/17 05:17:56;;;;;;;32.67;23.48;;;21.10;99.90;;;;;;4915861;29;20024;-74
2023/08/17 05:20:22;;;;;;;31.10;23.08;;;21.20;99.90;;;;;;4900059;29;20436;-73
2023/08/17 05:22:48;;;;;;;29.98;24.52;;;21.30;99.90;;;;;;4916218;29;20511;-77
2023/08/17 05:25:14;;;;;;;28.75;23.45;;;21.50;99.90;;;;;;4898060;29;20507;-74
2023/08/17 05:27:41;;;;;;;32.75;24.80;;;21.80;99.90;;;;;;4898182;29;20389;-75
2023/08/17 05:30:08;;;;;;;36.40;26.17;;;21.80;99.90;;;;;;4900027;29;20032;-76
2023/08/17 05:32:34;;;;;;;37.05;24.98;;;21.90;99.90;;;;;;4897095;29;20033;-74
2023/08/17 05:35:00;;;;;;;32.47;26.40;;;21.80;99.90;;;;;;4896619;29;20416;-76
2023/08/17 05:37:26;;;;;;;44.30;25.13;;;21.70;99.90;;;;;;4896331;29;20039;-76
2023/08/17 05:39:51;;;;;;;32.22;24.55;;;21.80;99.90;;;;;;4881301;29;20131;-75
2023/08/17 05:42:18;;;;;;;33.38;23.33;;;21.90;99.90;;;;;;4907339;29;20016;-76
2023/08/17 05:44:44;;;;;;;30.33;24.45;;;22.20;99.90;;;;;;4896863;29;20036;-76
2023/08/17 05:47:10;;;;;;;30.83;23.48;;;22.40;99.90;;;;;;4888242;29;20123;-73
2023/08/17 05:49:37;;;;;;;34.33;24.00;;;22.80;99.90;;;;;;4903889;29;20468;-74
2023/08/17 05:52:03;;;;;;;28.65;22.02;;;23.10;99.90;;;;;;4916069;29;20020;-73
2023/08/17 05:54:29;;;;;;;31.55;22.70;;;23.30;99.90;;;;;;4916863;29;20067;-76
2023/08/17 05:56:55;;;;;;;32.25;24.65;;;22.10;99.90;;;;;;4898815;29;20154;-73
2023/08/17 05:59:21;;;;;;;35.00;23.33;;;23.60;99.90;;;;;;4905744;29;20060;-75
2023/08/17 06:01:46;;;;;;;29.77;20.60;;;23.70;99.90;;;;;;4898300;29;20036;-74
2023/08/17 06:04:12;;;;;;;26.85;20.92;;;23.80;99.90;;;;;;4903547;29;20044;-74
2023/08/17 06:06:38;;;;;;;25.15;19.75;;;24.00;99.90;;;;;;4897640;29;20151;-76
2023/08/17 06:09:04;;;;;;;29.20;20.90;;;24.00;99.90;;;;;;4897823;29;20354;-75
2023/08/17 06:11:30;;;;;;;25.73;19.40;;;24.20;99.90;;;;;;4897373;29;20047;-75
2023/08/17 06:13:56;;;;;;;32.72;20.52;;;24.50;99.90;;;;;;4913618;29;20059;-75
2023/08/17 06:16:22;;;;;;;29.30;21.17;;;24.50;99.90;;;;;;4897475;29;20104;-76
2023/08/17 06:18:48;;;;;;;27.10;18.60;;;24.90;99.90;;;;;;4908901;29;20077;-73
2023/08/17 06:21:13;;;;;;;24.65;18.42;;;25.10;99.90;;;;;;4898042;29;20380;-76
2023/08/17 06:23:39;;;;;;;22.92;16.92;;;25.10;99.90;;;;;;4900399;29;20031;-75
2023/08/17 06:26:05;;;;;;;24.23;16.77;;;25.30;99.90;;;;;;4906078;29;20024;-76
2023/08/17 06:28:31;;;;;;;23.17;16.02;;;25.20;99.90;;;;;;4896989;29;20108;-77
2023/08/17 06:30:57;;;;;;;23.13;16.63;;;25.60;99.90;;;;;;4897076;29;20056;-72
2023/08/17 06:33:23;;;;;;;20.80;13.55;;;25.70;99.90;;;;;;4896865;29;20032;-74
2023/08/17 06:35:49;;;;;;;20.27;13.95;;;25.80;99.90;;;;;;4898746;29;20040;-73
2023/08/17 06:38:15;;;;;;;17.75;13.45;;;25.70;99.90;;;;;;4901432;29;20501;-73
2023/08/17 06:40:41;;;;;;;19.17;13.32;;;25.60;99.90;;;;;;4896354;29;20043;-76
2023/08/17 06:43:07;;;;;;;18.20;11.55;;;25.70;99.90;;;;;;4899914;29;20060;-75
2023/08/17 06:45:33;;;;;;;19.13;13.48;;;25.90;99.90;;;;;;4903320;29;20361;-76
2023/08/17 06:47:59;;;;;;;20.92;12.68;;;26.30;99.90;;;;;;4905893;29;20151;-75
2023/08/17 06:50:26;;;;;;;19.50;11.75;;;26.40;99.90;;;;;;4905108;29;20028;-76
2023/08/17 06:52:52;;;;;;;21.67;13.13;;;26.60;99.90;;;;;;4902070;29;20063;-73
2023/08/17 06:55:18;;;;;;;18.10;12.90;;;26.60;99.90;;;;;;4913224;29;20043;-76
2023/08/17 06:57:44;;;;;;;19.10;13.77;;;26.60;99.90;;;;;;4905219;29;20028;-76
2023/08/17 07:00:13;;;;;;;20.48;13.38;;;26.90;99.90;;;;;;4902138;29;20472;-77
2023/08/17 07:02:39;;;;;;;17.08;11.25;;;26.90;99.90;;;;;;4899932;29;20468;-75
2023/08/17 07:05:05;;;;;;;20.27;12.15;;;26.90;99.90;;;;;;4909845;29;20043;-73
2023/08/17 07:07:31;;;;;;;15.02;10.02;;;26.80;99.90;;;;;;4909681;29;20036;-77
2023/08/17 07:09:57;;;;;;;16.77;11.32;;;26.60;99.90;;;;;;4913091;29;20036;-75
2023/08/17 07:12:24;;;;;;;19.50;12.48;;;26.30;99.90;;;;;;4915151;29;20067;-73
2023/08/17 07:14:50;;;;;;;18.42;13.48;;;26.20;99.90;;;;;;4915523;29;20036;-72
2023/08/17 07:17:16;;;;;;;16.40;12.40;;;26.20;99.90;;;;;;4915504;29;20116;-75
2023/08/17 07:19:42;;;;;;;22.95;11.98;;;26.00;99.90;;;;;;4915748;29;20061;-75
2023/08/17 07:22:08;;;;;;;17.25;12.02;;;26.10;99.90;;;;;;4915603;29;20032;-73
2023/08/17 07:24:34;;;;;;;17.60;13.00;;;26.10;99.90;;;;;;4914920;29;20039;-75
2023/08/17 07:26:59;;;;;;;18.30;12.43;;;26.20;99.90;;;;;;4915312;29;20476;-73
2023/08/17 07:29:25;;;;;;;20.10;12.45;;;26.20;99.90;;;;;;4915159;29;20036;-74
2023/08/17 07:31:51;;;;;;;18.33;11.70;;;26.00;99.90;;;;;;4915581;29;20032;-73
2023/08/17 07:34:17;;;;;;;17.83;12.23;;;26.10;99.90;;;;;;4914194;29;20096;-76
2023/08/17 07:36:43;;;;;;;17.50;12.88;;;26.20;99.90;;;;;;4915693;29;20035;-75
2023/08/17 07:39:08;;;;;;;21.00;12.23;;;26.10;99.90;;;;;;4915055;29;20086;-74
2023/08/17 07:41:34;;;;;;;18.20;12.77;;;26.10;99.90;;;;;;4915255;29;20095;-77
2023/08/17 07:44:00;;;;;;;17.30;11.85;;;26.20;99.90;;;;;;4914742;29;20028;-75
2023/08/17 07:46:26;;;;;;;19.50;12.68;;;26.30;99.90;;;;;;4913481;29;20029;-73
2023/08/17 07:48:51;;;;;;;18.38;12.88;;;26.40;99.90;;;;;;4907330;29;20020;-72
2023/08/17 07:51:17;;;;;;;18.90;13.88;;;26.20;99.90;;;;;;4905090;29;20043;-75
2023/08/17 07:53:43;;;;;;;19.00;14.20;;;26.60;99.90;;;;;;4906229;29;20031;-75
2023/08/17 07:56:09;;;;;;;21.35;16.00;;;26.70;99.90;;;;;;4904896;29;20075;-76
2023/08/17 07:58:34;;;;;;;21.67;16.45;;;27.20;99.90;;;;;;4911391;29;20028;-74
2023/08/17 08:01:01;;;;;;;26.83;17.73;;;;;;;;;;4908115;29;20032;-76
2023/08/17 08:03:27;;;;;;;23.13;16.92;;;27.50;99.90;;;;;;4915102;29;20029;-75
2023/08/17 08:05:52;;;;;;;29.80;19.27;;;27.40;99.90;;;;;;4899432;29;20549;-74
2023/08/17 08:08:19;;;;;;;24.15;17.40;;;27.40;99.90;;;;;;4899873;29;20116;-73
2023/08/17 08:10:45;;;;;;;24.63;17.42;;;27.40;99.90;;;;;;4903456;29;20056;-74
2023/08/17 08:13:12;;;;;;;24.17;18.38;;;;;;;;;;4901323;29;20056;-73
2023/08/17 08:15:39;;;;;;;27.00;16.70;;;27.70;99.90;;;;;;4902801;29;20409;-74
2023/08/17 08:18:04;;;;;;;22.35;17.73;;;27.90;99.90;;;;;;4905471;29;20028;-74
2023/08/17 08:20:30;;;;;;;24.77;18.27;;;28.00;99.90;;;;;;4913810;29;20428;-73
2023/08/17 08:22:56;;;;;;;24.40;18.00;;;27.90;99.90;;;;;;4899074;29;20100;-73
2023/08/17 08:25:22;;;;;;;26.30;17.20;;;27.70;99.90;;;;;;4899276;29;20122;-77
2023/08/17 08:27:47;;;;;;;24.80;15.50;;;27.60;99.00;;;;;;4898044;29;20072;-73
2023/08/17 08:30:13;;;;;;;21.95;18.33;;;27.30;99.90;;;;;;4893590;29;20480;-74
2023/08/17 08:32:39;;;;;;;23.92;18.00;;;27.30;99.90;;;;;;4915892;29;20055;-73
2023/08/17 08:35:05;;;;;;;23.25;16.38;;;27.00;99.90;;;;;;4906317;29;20642;-74
2023/08/17 08:37:31;;;;;;;18.77;14.23;;;27.10;99.90;;;;;;4917795;29;20031;-74
2023/08/17 08:39:57;;;;;;;20.67;14.60;;;27.30;99.90;;;;;;4911858;29;20033;-74
2023/08/17 08:42:25;;;;;;;21.13;16.33;;;27.40;99.80;;;;;;4903945;29;20499;-73
2023/08/17 08:44:51;;;;;;;21.42;15.82;;;27.50;99.60;;;;;;4916410;29;20029;-75
2023/08/17 08:47:18;;;;;;;25.33;17.65;;;27.60;99.90;;;;;;4914960;29;20040;-76
2023/08/17 08:50:09;;;;;;;22.27;16.33;;;27.70;99.50;;;;;;4916908;29;20063;-76
2023/08/17 08:52:39;;;;;;;20.13;13.95;;;27.80;99.90;;;;;;4913519;29;20037;-77
2023/08/17 08:55:36;;;;;;;24.83;16.02;;;27.90;98.30;;;;;;4904269;29;20040;-75
2023/08/17 08:58:04;;;;;;;19.58;14.32;;;28.00;98.00;;;;;;4896127;29;20032;-76
2023/08/17 09:00:30;;;;;;;20.05;14.63;;;28.10;98.70;;;;;;4902126;29;20046;-74
2023/08/17 09:02:56;;;;;;;21.13;14.07;;;28.00;97.30;;;;;;4903595;29;20036;-74
2023/08/17 09:05:22;;;;;;;19.67;15.63;;;28.10;97.10;;;;;;4896697;29;20041;-73
2023/08/17 09:07:53;;;;;;;24.27;16.40;;;27.80;96.80;;;;;;4905610;29;20106;-73
2023/08/17 09:10:19;;;;;;;26.10;14.13;;;27.80;97.50;;;;;;4895933;29;20037;-74
2023/08/17 09:12:47;;;;;;;18.80;13.82;;;27.80;98.40;;;;;;4883157;29;20373;-73
2023/08/17 09:15:13;;;;;;;22.30;14.75;;;27.90;98.50;;;;;;4896465;29;20466;-75
2023/08/17 09:17:39;;;;;;;21.98;14.82;;;;;;;;;;4896567;29;20027;-73
2023/08/17 09:20:07;;;;;;;19.95;13.65;;;28.30;98.70;;;;;;4895979;29;20587;-73
2023/08/17 09:22:43;;;;;;;18.13;12.70;;;28.20;97.80;;;;;;4895862;29;20021;-73
2023/08/17 09:25:10;;;;;;;17.60;12.75;;;27.90;97.10;;;;;;4900984;29;20088;-76
2023/08/17 09:27:37;;;;;;;20.13;12.73;;;27.80;98.00;;;;;;4904958;29;20507;-73
2023/08/17 09:30:06;;;;;;;21.48;14.35;;;27.50;97.40;;;;;;4917039;29;20376;-76
2023/08/17 09:32:33;;;;;;;23.13;13.30;;;27.90;97.90;;;;;;4917000;29;20082;-73
2023/08/17 09:35:05;;;;;;;17.17;11.23;;;27.80;98.00;;;;;;4916818;29;20392;-76
2023/08/17 09:37:32;;;;;;;15.55;11.50;;;27.90;97.20;;;;;;4916504;29;20087;-73
2023/08/17 09:39:58;;;;;;;14.95;10.80;;;27.50;96.00;;;;;;4914838;29;20040;-74
2023/08/17 09:42:25;;;;;;;16.83;10.32;;;27.40;96.30;;;;;;4895153;29;20381;-73
2023/08/17 09:44:52;;;;;;;17.50;10.82;;;27.80;96.70;;;;;;4896882;29;20043;-76
2023/08/17 09:47:21;;;;;;;12.65;8.02;;;;;;;;;;4896688;29;20052;-74
2023/08/17 09:49:54;;;;;;;14.60;8.80;;;28.40;94.80;;;;;;4896853;29;20391;-73
2023/08/17 09:52:26;;;;;;;13.77;9.32;;;;;;;;;;4913433;29;20029;-73
2023/08/17 09:54:54;;;;;;;12.80;7.95;;;28.70;95.50;;;;;;4897304;29;20100;-76
2023/08/17 09:57:20;;;;;;;15.00;8.30;;;28.30;94.40;;;;;;4898797;29;20021;-74
2023/08/17 09:59:46;;;;;;;10.10;7.18;;;28.50;93.80;;;;;;4917922;29;20024;-73
2023/08/17 10:02:21;;;;;;;14.35;8.32;;;28.80;93.90;;;;;;4916394;29;20123;-73
2023/08/17 10:04:53;;;;;;;10.55;7.45;;;28.30;95.00;;;;;;4916671;29;20039;-74
2023/08/17 10:07:21;;;;;;;10.73;7.38;;;28.60;93.90;;;;;;4916346;29;20479;-76
2023/08/17 10:09:56;;;;;;;13.45;8.25;;;28.70;94.40;;;;;;4915801;29;20405;-73
2023/08/17 10:12:26;;;;;;;12.82;8.00;;;28.70;92.50;;;;;;4916534;29;20036;-75
2023/08/17 10:14:59;;;;;;;13.57;7.78;;;29.00;96.00;;;;;;4916048;29;20463;-73
2023/08/17 10:17:39;;;;;;;13.00;8.27;;;28.90;94.20;;;;;;4916410;29;20028;-74
2023/08/17 10:20:06;;;;;;;13.65;8.52;;;28.80;93.70;;;;;;4916094;29;20038;-73
2023/08/17 10:23:03;;;;;;;14.50;8.00;;;28.60;93.10;;;;;;4916342;29;20023;-73
2023/08/17 10:25:29;;;;;;;10.82;8.50;;;28.60;93.40;;;;;;4834801;29;20041;-73
2023/08/17 10:27:55;;;;;;;13.90;8.82;;;28.80;93.50;;;;;;4839209;29;20041;-73
2023/08/17 10:30:22;;;;;;;11.00;7.88;;;28.60;93.00;;;;;;4836868;29;20046;-74
2023/08/17 10:32:48;;;;;;;12.43;8.07;;;28.50;94.10;;;;;;4821802;29;20461;-74
2023/08/17 10:35:15;;;;;;;10.20;7.75;;;29.00;93.20;;;;;;4833091;29;20041;-76
2023/08/17 10:37:42;;;;;;;12.40;7.80;;;29.10;93.10;;;;;;4840275;29;20538;-76
2023/08/17 10:40:08;;;;;;;13.15;8.52;;;;;;;;;;4839371;29;20058;-76
2023/08/17 10:42:36;;;;;;;12.57;8.40;;;29.20;99.40;;;;;;4847149;29;20064;-76
2023/08/17 10:45:21;;;;;;;17.98;8.40;;;29.20;99.50;;;;;;4840007;29;20068;-73
2023/08/17 10:47:47;;;;;;;12.93;7.97;;;29.10;99.80;;;;;;4839619;29;20034;-75
2023/08/17 10:50:24;;;;;;;12.85;8.57;;;;;;;;;;4843144;29;20041;-74
2023/08/17 10:52:53;;;;;;;10.18;7.00;;;29.80;92.60;;;;;;4853886;29;20044;-74
2023/08/17 10:55:39;;;;;;;11.50;8.00;;;29.70;92.30;;;;;;4841718;29;20050;-76
2023/08/17 10:58:11;;;;;;;11.25;7.38;;;29.70;93.20;;;;;;4843384;29;20364;-75
2023/08/17 11:00:42;;;;;;;9.73;6.88;;;29.50;92.30;;;;;;4841273;29;20120;-72
2023/08/17 11:03:12;;;;;;;11.70;8.18;;;29.30;91.80;;;;;;4912692;29;20044;-73
2023/08/17 11:05:41;;;;;;;10.05;7.20;;;29.20;92.00;;;;;;4890473;29;20036;-76
2023/08/17 11:08:19;;;;;;;14.82;8.10;;;29.20;92.10;;;;;;4897915;29;20027;-75
2023/08/17 11:11:03;;;;;;;15.73;9.25;;;29.40;91.50;;;;;;4915339;29;20152;-76
2023/08/17 11:13:35;;;;;;;13.45;8.95;;;29.60;91.60;;;;;;4915374;29;20035;-75
2023/08/17 11:16:02;;;;;;;13.05;8.18;;;29.50;91.20;;;;;;4916316;29;20063;-74
2023/08/17 11:18:29;;;;;;;13.65;7.53;;;29.80;92.00;;;;;;4921729;29;20032;-76
2023/08/17 11:20:56;;;;;;;11.82;8.05;;;29.60;90.90;;;;;;4897155;29;20031;-75
2023/08/17 11:23:29;;;;;;;10.73;7.25;;;29.00;91.50;;;;;;4907031;29;20060;-76
2023/08/17 11:25:55;;;;;;;11.90;7.38;;;28.80;92.10;;;;;;4904767;29;20040;-76
2023/08/17 11:28:22;;;;;;;11.18;7.70;;;28.90;92.70;;;;;;4903319;29;20032;-74
2023/08/17 11:31:02;;;;;;;13.07;7.32;;;29.00;92.90;;;;;;4919599;29;20083;-73
2023/08/17 11:33:29;;;;;;;13.77;7.13;;;28.90;92.80;;;;;;4920258;29;20458;-76
2023/08/17 11:35:55;;;;;;;12.43;6.95;;;28.90;92.70;;;;;;4903189;29;20035;-76
2023/08/17 11:38:21;;;;;;;10.13;6.80;;;29.10;93.80;;;;;;4919705;29;20067;-76
2023/08/17 11:40:48;;;;;;;13.18;6.85;;;29.30;92.80;;;;;;4920396;29;20058;-76
2023/08/17 11:43:14;;;;;;;13.13;7.68;;;29.50;92.30;;;;;;4920017;29;20032;-73
2023/08/17 11:45:41;;;;;;;12.98;8.25;;;29.50;92.20;;;;;;4919863;29;20040;-75
2023/08/17 11:48:07;;;;;;;9.45;7.55;;;29.60;92.50;;;;;;4919205;29;20051;-75
2023/08/17 11:50:33;;;;;;;11.13;7.07;;;29.70;92.70;;;;;;4919875;29;20103;-76
2023/08/17 11:53:00;;;;;;;9.50;6.90;;;;;;;;;;4924998;29;20039;-74
2023/08/17 11:55:27;;;;;;;10.98;6.97;;;;;;;;;;4909572;29;20027;-76
2023/08/17 11:57:53;;;;;;;10.10;6.88;;;;;;;;;;4912965;29;20049;-76
2023/08/17 12:00:25;;;;;;;14.02;7.28;;;;;;;;;;4907267;29;20040;-76
2023/08/17 12:02:54;;;;;;;10.05;6.93;;;;;;;;;;4926259;29;20428;-76
2023/08/17 12:05:23;;;;;;;12.85;7.35;;;29.20;99.90;;;;;;4919400;29;20103;-76
2023/08/17 12:07:50;;;;;;;13.43;7.68;;;29.10;94.50;;;;;;4907361;29;20068;-76
2023/08/17 12:10:18;;;;;;;10.27;7.28;;;29.20;94.40;;;;;;4900470;29;20028;-76
2023/08/17 12:12:44;;;;;;;13.45;7.72;;;29.20;93.80;;;;;;4919492;29;20032;-77
2023/08/17 12:15:11;;;;;;;12.23;7.60;;;29.30;94.40;;;;;;4918901;29;20059;-73
2023/08/17 12:17:47;;;;;;;11.85;6.93;;;29.30;93.30;;;;;;4919434;29;20472;-74
2023/08/17 12:20:20;;;;;;;12.20;7.38;;;29.30;92.80;;;;;;4919433;29;20030;-77
2023/08/17 12:22:49;;;;;;;15.05;8.32;;;29.20;92.90;;;;;;4902774;29;20032;-77
2023/08/17 12:25:15;;;;;;;12.60;7.88;;;29.20;92.90;;;;;;4919147;29;20119;-75
2023/08/17 12:27:41;;;;;;;10.23;7.03;;;29.20;92.40;;;;;;4921157;29;20020;-76
2023/08/17 12:30:25;;;;;;;9.13;6.88;;;29.10;92.30;;;;;;4921109;29;20028;-74
2023/08/17 12:32:51;;;;;;;10.18;7.35;;;29.30;93.30;;;;;;4927696;29;20024;-72
2023/08/17 12:35:19;;;;;;;12.70;7.30;;;29.40;92.60;;;;;;4911635;29;20534;-75